sensor_id;sensor_type;location;lat;lon;timestamp;P1;durP1;ratioP1;P2;durP2;ratioP2
36931;SDS011;22847;42.654;23.370;2022-12-13T00:00:12;9.13;;;4.90;;
36931;SDS011;22847;42.654;23.370;2022-12-13T00:02:42;8.98;;;4.50;;
36931;SDS011;22847;42.654;23.370;2022-12-13T00:05:08;8.48;;;4.75;;
36931;SDS011;22847;42.654;23.370;2022-12-13T00:07:34;8.50;;;4.55;;
36931;SDS011;22847;42.654;23.370;2022-12-13T00:10:00;7.57;;;4.50;;
36931;SDS011;22847;42.654;23.370;2022-12-13T00:12:25;9.25;;;4.90;;
36931;SDS011;22847;42.654;23.370;2022-12-13T00:14:51;8.98;;;4.97;;
36931;SDS011;22847;42.654;23.370;2022-12-13T00:17:17;10.80;;;5.60;;
36931;SDS011;22847;42.654;23.370;2022-12-13T00:19:43;9.43;;;5.00;;
36931;SDS011;22847;42.654;23.370;2022-12-13T00:22:08;9.50;;;5.32;;
36931;SDS011;22847;42.654;23.370;2022-12-13T00:24:33;8.35;;;4.78;;
36931;SDS011;22847;42.654;23.370;2022-12-13T00:26:59;8.57;;;4.72;;
36931;SDS011;22847;42.654;23.370;2022-12-13T00:29:24;7.32;;;4.72;;
36931;SDS011;22847;42.654;23.370;2022-12-13T00:31:50;8.13;;;4.68;;
36931;SDS011;22847;42.654;23.370;2022-12-13T00:34:15;7.82;;;5.00;;
36931;SDS011;22847;42.654;23.370;2022-12-13T00:36:41;7.78;;;4.90;;
36931;SDS011;22847;42.654;23.370;2022-12-13T00:39:06;7.35;;;4.57;;
36931;SDS011;22847;42.654;23.370;2022-12-13T00:41:32;7.45;;;4.63;;
36931;SDS011;22847;42.654;23.370;2022-12-13T00:43:59;7.78;;;4.93;;
36931;SDS011;22847;42.654;23.370;2022-12-13T00:46:25;10.00;;;5.18;;
36931;SDS011;22847;42.654;23.370;2022-12-13T00:48:53;7.60;;;4.88;;
36931;SDS011;22847;42.654;23.370;2022-12-13T00:51:21;9.77;;;5.07;;
36931;SDS011;22847;42.654;23.370;2022-12-13T00:53:47;9.45;;;5.38;;
36931;SDS011;22847;42.654;23.370;2022-12-13T00:56:14;9.75;;;5.45;;
36931;SDS011;22847;42.654;23.370;2022-12-13T00:58:43;8.40;;;5.07;;
36931;SDS011;22847;42.654;23.370;2022-12-13T01:01:10;8.30;;;5.07;;
36931;SDS011;22847;42.654;23.370;2022-12-13T01:03:37;9.52;;;5.55;;
36931;SDS011;22847;42.654;23.370;2022-12-13T01:08:39;9.43;;;5.28;;
36931;SDS011;22847;42.654;23.370;2022-12-13T01:11:05;10.75;;;5.18;;
36931;SDS011;22847;42.654;23.370;2022-12-13T01:13:31;10.65;;;5.70;;
36931;SDS011;22847;42.654;23.370;2022-12-13T01:15:57;11.88;;;5.80;;
36931;SDS011;22847;42.654;23.370;2022-12-13T01:18:23;10.00;;;6.13;;
36931;SDS011;22847;42.654;23.370;2022-12-13T01:21:04;11.30;;;5.60;;
36931;SDS011;22847;42.654;23.370;2022-12-13T01:23:40;10.57;;;5.50;;
36931;SDS011;22847;42.654;23.370;2022-12-13T01:26:11;11.88;;;5.72;;
36931;SDS011;22847;42.654;23.370;2022-12-13T01:28:38;13.27;;;6.45;;
36931;SDS011;22847;42.654;23.370;2022-12-13T01:31:05;11.10;;;6.07;;
36931;SDS011;22847;42.654;23.370;2022-12-13T01:33:33;12.25;;;6.75;;
36931;SDS011;22847;42.654;23.370;2022-12-13T01:35:59;10.05;;;6.28;;
36931;SDS011;22847;42.654;23.370;2022-12-13T01:38:26;11.63;;;6.53;;
36931;SDS011;22847;42.654;23.370;2022-12-13T01:40:52;11.93;;;6.03;;
36931;SDS011;22847;42.654;23.370;2022-12-13T01:43:24;11.25;;;5.65;;
36931;SDS011;22847;42.654;23.370;2022-12-13T01:45:53;9.70;;;5.30;;
36931;SDS011;22847;42.654;23.370;2022-12-13T01:48:20;12.73;;;6.28;;
36931;SDS011;22847;42.654;23.370;2022-12-13T01:50:52;11.10;;;5.60;;
36931;SDS011;22847;42.654;23.370;2022-12-13T01:53:24;10.90;;;5.80;;
36931;SDS011;22847;42.654;23.370;2022-12-13T01:55:53;10.18;;;5.93;;
36931;SDS011;22847;42.654;23.370;2022-12-13T01:58:21;9.25;;;5.93;;
36931;SDS011;22847;42.654;23.370;2022-12-13T02:00:48;10.25;;;5.85;;
36931;SDS011;22847;42.654;23.370;2022-12-13T02:03:14;10.27;;;5.50;;
36931;SDS011;22847;42.654;23.370;2022-12-13T02:08:30;9.68;;;5.90;;
36931;SDS011;22847;42.654;23.370;2022-12-13T02:10:56;11.00;;;6.25;;
36931;SDS011;22847;42.654;23.370;2022-12-13T02:13:22;11.43;;;6.85;;
36931;SDS011;22847;42.654;23.370;2022-12-13T02:21:14;12.45;;;6.28;;
36931;SDS011;22847;42.654;23.370;2022-12-13T02:23:50;10.57;;;6.55;;
36931;SDS011;22847;42.654;23.370;2022-12-13T02:35:21;12.40;;;6.93;;
36931;SDS011;22847;42.654;23.370;2022-12-13T02:37:50;12.63;;;6.97;;
36931;SDS011;22847;42.654;23.370;2022-12-13T02:40:34;12.02;;;6.47;;
36931;SDS011;22847;42.654;23.370;2022-12-13T02:43:23;11.00;;;6.65;;
36931;SDS011;22847;42.654;23.370;2022-12-13T02:45:54;13.00;;;6.82;;
36931;SDS011;22847;42.654;23.370;2022-12-13T02:48:25;12.65;;;6.55;;
36931;SDS011;22847;42.654;23.370;2022-12-13T02:50:53;13.75;;;7.18;;
36931;SDS011;22847;42.654;23.370;2022-12-13T02:53:20;13.77;;;6.47;;
36931;SDS011;22847;42.654;23.370;2022-12-13T02:55:47;13.52;;;7.15;;
36931;SDS011;22847;42.654;23.370;2022-12-13T02:58:13;12.55;;;6.85;;
36931;SDS011;22847;42.654;23.370;2022-12-13T03:09:13;9.98;;;6.35;;
36931;SDS011;22847;42.654;23.370;2022-12-13T03:12:09;14.00;;;6.95;;
36931;SDS011;22847;42.654;23.370;2022-12-13T03:17:40;14.05;;;6.38;;
36931;SDS011;22847;42.654;23.370;2022-12-13T03:20:14;12.43;;;6.38;;
36931;SDS011;22847;42.654;23.370;2022-12-13T03:22:41;12.10;;;6.28;;
36931;SDS011;22847;42.654;23.370;2022-12-13T03:25:06;13.27;;;6.53;;
36931;SDS011;22847;42.654;23.370;2022-12-13T03:27:32;10.40;;;6.50;;
36931;SDS011;22847;42.654;23.370;2022-12-13T03:29:58;11.95;;;6.03;;
36931;SDS011;22847;42.654;23.370;2022-12-13T03:32:24;10.07;;;5.75;;
36931;SDS011;22847;42.654;23.370;2022-12-13T03:34:49;12.20;;;6.72;;
36931;SDS011;22847;42.654;23.370;2022-12-13T03:37:14;12.88;;;6.72;;
36931;SDS011;22847;42.654;23.370;2022-12-13T03:39:40;11.55;;;6.35;;
36931;SDS011;22847;42.654;23.370;2022-12-13T03:42:05;12.48;;;6.85;;
36931;SDS011;22847;42.654;23.370;2022-12-13T03:44:31;11.43;;;6.50;;
36931;SDS011;22847;42.654;23.370;2022-12-13T03:46:56;16.83;;;6.82;;
36931;SDS011;22847;42.654;23.370;2022-12-13T03:49:21;12.60;;;6.43;;
36931;SDS011;22847;42.654;23.370;2022-12-13T03:51:47;14.70;;;7.35;;
36931;SDS011;22847;42.654;23.370;2022-12-13T03:54:12;10.57;;;6.68;;
36931;SDS011;22847;42.654;23.370;2022-12-13T03:56:38;13.43;;;7.05;;
36931;SDS011;22847;42.654;23.370;2022-12-13T03:59:03;12.73;;;6.53;;
36931;SDS011;22847;42.654;23.370;2022-12-13T04:01:28;14.13;;;7.20;;
36931;SDS011;22847;42.654;23.370;2022-12-13T04:03:54;13.48;;;7.05;;
36931;SDS011;22847;42.654;23.370;2022-12-13T04:06:19;11.82;;;6.88;;
36931;SDS011;22847;42.654;23.370;2022-12-13T04:08:44;15.00;;;7.00;;
36931;SDS011;22847;42.654;23.370;2022-12-13T04:11:10;12.25;;;6.63;;
36931;SDS011;22847;42.654;23.370;2022-12-13T04:13:54;12.38;;;6.65;;
36931;SDS011;22847;42.654;23.370;2022-12-13T04:16:20;16.02;;;7.10;;
36931;SDS011;22847;42.654;23.370;2022-12-13T04:18:46;12.15;;;6.93;;
36931;SDS011;22847;42.654;23.370;2022-12-13T04:21:12;10.93;;;6.38;;
36931;SDS011;22847;42.654;23.370;2022-12-13T04:23:37;17.05;;;8.23;;
36931;SDS011;22847;42.654;23.370;2022-12-13T04:26:03;12.55;;;6.78;;
36931;SDS011;22847;42.654;23.370;2022-12-13T04:28:28;15.60;;;7.65;;
36931;SDS011;22847;42.654;23.370;2022-12-13T04:30:53;14.00;;;7.32;;
36931;SDS011;22847;42.654;23.370;2022-12-13T04:33:20;15.48;;;7.97;;
36931;SDS011;22847;42.654;23.370;2022-12-13T04:35:46;14.65;;;7.95;;
36931;SDS011;22847;42.654;23.370;2022-12-13T04:38:12;14.57;;;7.32;;
36931;SDS011;22847;42.654;23.370;2022-12-13T04:40:38;15.02;;;7.63;;
36931;SDS011;22847;42.654;23.370;2022-12-13T04:43:03;12.98;;;7.55;;
36931;SDS011;22847;42.654;23.370;2022-12-13T04:45:29;14.38;;;8.35;;
36931;SDS011;22847;42.654;23.370;2022-12-13T04:47:54;14.63;;;7.30;;
36931;SDS011;22847;42.654;23.370;2022-12-13T04:50:20;24.08;;;8.45;;
36931;SDS011;22847;42.654;23.370;2022-12-13T04:52:45;14.73;;;8.20;;
36931;SDS011;22847;42.654;23.370;2022-12-13T04:55:10;13.85;;;7.25;;
36931;SDS011;22847;42.654;23.370;2022-12-13T04:57:36;16.00;;;8.02;;
36931;SDS011;22847;42.654;23.370;2022-12-13T05:00:03;16.10;;;8.02;;
36931;SDS011;22847;42.654;23.370;2022-12-13T05:02:29;16.40;;;8.25;;
36931;SDS011;22847;42.654;23.370;2022-12-13T05:04:55;16.45;;;8.55;;
36931;SDS011;22847;42.654;23.370;2022-12-13T05:07:20;14.82;;;8.13;;
36931;SDS011;22847;42.654;23.370;2022-12-13T05:09:46;16.05;;;8.13;;
36931;SDS011;22847;42.654;23.370;2022-12-13T05:12:12;20.23;;;8.27;;
36931;SDS011;22847;42.654;23.370;2022-12-13T05:14:37;18.38;;;9.20;;
36931;SDS011;22847;42.654;23.370;2022-12-13T05:17:02;19.08;;;8.20;;
36931;SDS011;22847;42.654;23.370;2022-12-13T05:19:28;17.77;;;8.68;;
36931;SDS011;22847;42.654;23.370;2022-12-13T05:21:53;19.40;;;8.48;;
36931;SDS011;22847;42.654;23.370;2022-12-13T05:24:19;16.92;;;8.43;;
36931;SDS011;22847;42.654;23.370;2022-12-13T05:26:44;13.38;;;7.22;;
36931;SDS011;22847;42.654;23.370;2022-12-13T05:29:10;13.10;;;7.50;;
36931;SDS011;22847;42.654;23.370;2022-12-13T05:31:35;15.13;;;7.25;;
36931;SDS011;22847;42.654;23.370;2022-12-13T05:34:01;17.35;;;9.00;;
36931;SDS011;22847;42.654;23.370;2022-12-13T05:36:26;17.83;;;8.40;;
36931;SDS011;22847;42.654;23.370;2022-12-13T05:38:51;16.67;;;7.75;;
36931;SDS011;22847;42.654;23.370;2022-12-13T05:41:18;15.00;;;7.75;;
36931;SDS011;22847;42.654;23.370;2022-12-13T05:43:47;15.73;;;7.95;;
36931;SDS011;22847;42.654;23.370;2022-12-13T05:46:12;17.70;;;8.57;;
36931;SDS011;22847;42.654;23.370;2022-12-13T05:48:38;23.70;;;8.45;;
36931;SDS011;22847;42.654;23.370;2022-12-13T05:51:04;14.55;;;7.63;;
36931;SDS011;22847;42.654;23.370;2022-12-13T05:53:29;14.18;;;7.50;;
36931;SDS011;22847;42.654;23.370;2022-12-13T05:55:58;18.40;;;8.52;;
36931;SDS011;22847;42.654;23.370;2022-12-13T05:58:24;16.73;;;8.75;;
36931;SDS011;22847;42.654;23.370;2022-12-13T06:00:49;17.10;;;8.38;;
36931;SDS011;22847;42.654;23.370;2022-12-13T06:03:14;17.90;;;8.93;;
36931;SDS011;22847;42.654;23.370;2022-12-13T06:05:40;18.83;;;8.68;;
36931;SDS011;22847;42.654;23.370;2022-12-13T06:08:07;15.30;;;8.82;;
36931;SDS011;22847;42.654;23.370;2022-12-13T06:10:32;18.25;;;9.10;;
36931;SDS011;22847;42.654;23.370;2022-12-13T06:12:58;18.80;;;8.90;;
36931;SDS011;22847;42.654;23.370;2022-12-13T06:15:23;20.13;;;9.27;;
36931;SDS011;22847;42.654;23.370;2022-12-13T06:17:48;17.40;;;8.98;;
36931;SDS011;22847;42.654;23.370;2022-12-13T06:20:14;22.60;;;9.13;;
36931;SDS011;22847;42.654;23.370;2022-12-13T06:22:39;16.77;;;9.18;;
36931;SDS011;22847;42.654;23.370;2022-12-13T06:25:05;18.13;;;9.13;;
36931;SDS011;22847;42.654;23.370;2022-12-13T06:27:31;16.40;;;9.07;;
36931;SDS011;22847;42.654;23.370;2022-12-13T06:29:56;16.15;;;8.02;;
36931;SDS011;22847;42.654;23.370;2022-12-13T06:32:21;19.13;;;9.50;;
36931;SDS011;22847;42.654;23.370;2022-12-13T06:34:47;18.35;;;9.25;;
36931;SDS011;22847;42.654;23.370;2022-12-13T06:37:12;22.63;;;9.88;;
36931;SDS011;22847;42.654;23.370;2022-12-13T06:39:38;18.15;;;8.90;;
36931;SDS011;22847;42.654;23.370;2022-12-13T06:42:05;18.55;;;9.65;;
36931;SDS011;22847;42.654;23.370;2022-12-13T06:44:37;22.10;;;9.63;;
36931;SDS011;22847;42.654;23.370;2022-12-13T06:47:05;23.35;;;9.82;;
36931;SDS011;22847;42.654;23.370;2022-12-13T06:49:30;21.23;;;9.52;;
36931;SDS011;22847;42.654;23.370;2022-12-13T06:51:56;19.50;;;9.38;;
36931;SDS011;22847;42.654;23.370;2022-12-13T06:54:21;19.05;;;9.68;;
36931;SDS011;22847;42.654;23.370;2022-12-13T06:56:46;21.27;;;10.38;;
36931;SDS011;22847;42.654;23.370;2022-12-13T06:59:12;20.15;;;9.95;;
36931;SDS011;22847;42.654;23.370;2022-12-13T07:01:37;19.50;;;9.98;;
36931;SDS011;22847;42.654;23.370;2022-12-13T07:04:03;21.17;;;10.13;;
36931;SDS011;22847;42.654;23.370;2022-12-13T07:06:29;22.10;;;10.38;;
36931;SDS011;22847;42.654;23.370;2022-12-13T07:08:55;21.83;;;10.77;;
36931;SDS011;22847;42.654;23.370;2022-12-13T07:11:25;18.30;;;9.27;;
36931;SDS011;22847;42.654;23.370;2022-12-13T07:13:53;23.25;;;10.65;;
36931;SDS011;22847;42.654;23.370;2022-12-13T07:16:19;23.95;;;10.65;;
36931;SDS011;22847;42.654;23.370;2022-12-13T07:18:46;18.17;;;9.88;;
36931;SDS011;22847;42.654;23.370;2022-12-13T07:21:12;19.40;;;10.43;;
36931;SDS011;22847;42.654;23.370;2022-12-13T07:23:39;19.17;;;10.13;;
36931;SDS011;22847;42.654;23.370;2022-12-13T07:26:05;18.27;;;9.23;;
36931;SDS011;22847;42.654;23.370;2022-12-13T07:28:32;18.50;;;8.60;;
36931;SDS011;22847;42.654;23.370;2022-12-13T07:31:02;15.40;;;8.93;;
36931;SDS011;22847;42.654;23.370;2022-12-13T07:33:29;17.17;;;8.93;;
36931;SDS011;22847;42.654;23.370;2022-12-13T07:36:01;14.60;;;8.45;;
36931;SDS011;22847;42.654;23.370;2022-12-13T07:38:34;17.05;;;9.32;;
36931;SDS011;22847;42.654;23.370;2022-12-13T07:41:00;17.38;;;9.40;;
36931;SDS011;22847;42.654;23.370;2022-12-13T07:43:26;15.18;;;8.93;;
36931;SDS011;22847;42.654;23.370;2022-12-13T07:45:51;16.60;;;9.45;;
36931;SDS011;22847;42.654;23.370;2022-12-13T07:48:17;15.32;;;9.73;;
36931;SDS011;22847;42.654;23.370;2022-12-13T07:50:43;18.38;;;9.30;;
36931;SDS011;22847;42.654;23.370;2022-12-13T07:53:09;19.00;;;9.77;;
36931;SDS011;22847;42.654;23.370;2022-12-13T07:55:35;21.30;;;10.05;;
36931;SDS011;22847;42.654;23.370;2022-12-13T07:58:02;16.92;;;8.90;;
36931;SDS011;22847;42.654;23.370;2022-12-13T08:00:29;18.38;;;10.07;;
36931;SDS011;22847;42.654;23.370;2022-12-13T08:02:54;15.57;;;9.85;;
36931;SDS011;22847;42.654;23.370;2022-12-13T08:05:19;17.20;;;9.30;;
36931;SDS011;22847;42.654;23.370;2022-12-13T08:07:45;18.75;;;9.02;;
36931;SDS011;22847;42.654;23.370;2022-12-13T08:10:11;16.33;;;9.02;;
36931;SDS011;22847;42.654;23.370;2022-12-13T08:12:36;17.33;;;9.40;;
36931;SDS011;22847;42.654;23.370;2022-12-13T08:15:01;18.23;;;9.75;;
36931;SDS011;22847;42.654;23.370;2022-12-13T08:17:27;18.42;;;8.90;;
36931;SDS011;22847;42.654;23.370;2022-12-13T08:19:52;16.45;;;9.48;;
36931;SDS011;22847;42.654;23.370;2022-12-13T08:22:18;15.23;;;8.40;;
36931;SDS011;22847;42.654;23.370;2022-12-13T08:24:43;15.30;;;8.40;;
36931;SDS011;22847;42.654;23.370;2022-12-13T08:27:08;13.93;;;7.88;;
36931;SDS011;22847;42.654;23.370;2022-12-13T08:29:34;18.13;;;9.05;;
36931;SDS011;22847;42.654;23.370;2022-12-13T08:32:04;18.98;;;10.82;;
36931;SDS011;22847;42.654;23.370;2022-12-13T08:34:31;18.00;;;9.93;;
36931;SDS011;22847;42.654;23.370;2022-12-13T08:36:56;17.55;;;9.70;;
36931;SDS011;22847;42.654;23.370;2022-12-13T08:39:22;16.60;;;9.23;;
36931;SDS011;22847;42.654;23.370;2022-12-13T08:41:47;15.77;;;8.90;;
36931;SDS011;22847;42.654;23.370;2022-12-13T08:44:13;14.52;;;8.73;;
36931;SDS011;22847;42.654;23.370;2022-12-13T08:46:38;14.65;;;8.23;;
36931;SDS011;22847;42.654;23.370;2022-12-13T08:49:03;13.45;;;8.07;;
36931;SDS011;22847;42.654;23.370;2022-12-13T08:51:29;16.58;;;9.70;;
36931;SDS011;22847;42.654;23.370;2022-12-13T08:53:54;16.10;;;8.57;;
36931;SDS011;22847;42.654;23.370;2022-12-13T08:56:19;21.00;;;8.98;;
36931;SDS011;22847;42.654;23.370;2022-12-13T08:58:48;19.40;;;9.57;;
36931;SDS011;22847;42.654;23.370;2022-12-13T09:01:15;15.95;;;9.30;;
36931;SDS011;22847;42.654;23.370;2022-12-13T09:03:41;14.07;;;8.30;;
36931;SDS011;22847;42.654;23.370;2022-12-13T09:06:14;17.77;;;8.50;;
36931;SDS011;22847;42.654;23.370;2022-12-13T09:08:41;16.05;;;9.10;;
36931;SDS011;22847;42.654;23.370;2022-12-13T09:11:07;14.73;;;9.10;;
36931;SDS011;22847;42.654;23.370;2022-12-13T09:13:35;18.48;;;9.07;;
36931;SDS011;22847;42.654;23.370;2022-12-13T09:16:04;15.75;;;8.40;;
36931;SDS011;22847;42.654;23.370;2022-12-13T09:18:32;17.73;;;9.77;;
36931;SDS011;22847;42.654;23.370;2022-12-13T09:20:57;18.30;;;9.23;;
36931;SDS011;22847;42.654;23.370;2022-12-13T09:23:23;17.98;;;9.57;;
36931;SDS011;22847;42.654;23.370;2022-12-13T09:25:54;15.90;;;9.95;;
36931;SDS011;22847;42.654;23.370;2022-12-13T09:28:21;16.50;;;9.25;;
36931;SDS011;22847;42.654;23.370;2022-12-13T09:30:47;16.38;;;8.70;;
36931;SDS011;22847;42.654;23.370;2022-12-13T09:33:13;15.15;;;8.43;;
36931;SDS011;22847;42.654;23.370;2022-12-13T09:35:38;14.10;;;7.65;;
36931;SDS011;22847;42.654;23.370;2022-12-13T09:38:04;13.82;;;7.78;;
36931;SDS011;22847;42.654;23.370;2022-12-13T09:40:29;19.33;;;8.43;;
36931;SDS011;22847;42.654;23.370;2022-12-13T09:42:56;16.17;;;8.30;;
36931;SDS011;22847;42.654;23.370;2022-12-13T09:45:23;13.85;;;8.27;;
36931;SDS011;22847;42.654;23.370;2022-12-13T09:47:49;19.00;;;9.13;;
36931;SDS011;22847;42.654;23.370;2022-12-13T09:50:19;14.35;;;8.40;;
36931;SDS011;22847;42.654;23.370;2022-12-13T09:52:49;16.92;;;9.82;;
36931;SDS011;22847;42.654;23.370;2022-12-13T09:57:43;16.40;;;9.00;;
36931;SDS011;22847;42.654;23.370;2022-12-13T10:00:12;17.33;;;8.98;;
36931;SDS011;22847;42.654;23.370;2022-12-13T10:02:42;17.20;;;9.85;;
36931;SDS011;22847;42.654;23.370;2022-12-13T10:05:13;21.60;;;12.20;;
36931;SDS011;22847;42.654;23.370;2022-12-13T10:07:42;24.40;;;13.32;;
36931;SDS011;22847;42.654;23.370;2022-12-13T10:10:08;21.08;;;11.95;;
36931;SDS011;22847;42.654;23.370;2022-12-13T10:12:37;22.63;;;11.05;;
36931;SDS011;22847;42.654;23.370;2022-12-13T10:15:04;21.85;;;11.50;;
36931;SDS011;22847;42.654;23.370;2022-12-13T10:17:33;17.80;;;10.48;;
36931;SDS011;22847;42.654;23.370;2022-12-13T10:20:02;21.17;;;11.02;;
36931;SDS011;22847;42.654;23.370;2022-12-13T10:22:29;21.35;;;10.50;;
36931;SDS011;22847;42.654;23.370;2022-12-13T10:27:37;18.83;;;11.32;;
36931;SDS011;22847;42.654;23.370;2022-12-13T10:32:56;18.73;;;9.65;;
36931;SDS011;22847;42.654;23.370;2022-12-13T10:37:52;20.63;;;10.27;;
36931;SDS011;22847;42.654;23.370;2022-12-13T10:40:24;16.70;;;9.65;;
36931;SDS011;22847;42.654;23.370;2022-12-13T10:43:32;19.63;;;11.05;;
36931;SDS011;22847;42.654;23.370;2022-12-13T10:48:35;16.17;;;9.30;;
36931;SDS011;22847;42.654;23.370;2022-12-13T10:51:04;19.48;;;9.60;;
36931;SDS011;22847;42.654;23.370;2022-12-13T10:53:34;14.23;;;9.00;;
36931;SDS011;22847;42.654;23.370;2022-12-13T10:56:04;13.00;;;7.85;;
36931;SDS011;22847;42.654;23.370;2022-12-13T10:58:43;12.88;;;7.05;;
36931;SDS011;22847;42.654;23.370;2022-12-13T11:03:42;15.80;;;8.23;;
36931;SDS011;22847;42.654;23.370;2022-12-13T11:06:19;16.60;;;8.85;;
36931;SDS011;22847;42.654;23.370;2022-12-13T11:08:44;20.45;;;9.00;;
36931;SDS011;22847;42.654;23.370;2022-12-13T11:11:10;17.85;;;9.07;;
36931;SDS011;22847;42.654;23.370;2022-12-13T11:13:39;17.10;;;9.52;;
36931;SDS011;22847;42.654;23.370;2022-12-13T11:16:22;15.25;;;9.23;;
36931;SDS011;22847;42.654;23.370;2022-12-13T11:18:55;15.82;;;9.48;;
36931;SDS011;22847;42.654;23.370;2022-12-13T11:21:24;17.98;;;10.45;;
36931;SDS011;22847;42.654;23.370;2022-12-13T11:23:55;16.45;;;10.20;;
36931;SDS011;22847;42.654;23.370;2022-12-13T11:26:24;16.83;;;9.73;;
36931;SDS011;22847;42.654;23.370;2022-12-13T11:28:56;18.45;;;10.68;;
36931;SDS011;22847;42.654;23.370;2022-12-13T11:39:26;17.38;;;8.82;;
36931;SDS011;22847;42.654;23.370;2022-12-13T11:41:57;13.85;;;7.78;;
36931;SDS011;22847;42.654;23.370;2022-12-13T11:44:37;15.25;;;8.32;;
36931;SDS011;22847;42.654;23.370;2022-12-13T11:47:04;13.18;;;8.43;;
36931;SDS011;22847;42.654;23.370;2022-12-13T11:49:34;16.92;;;8.63;;
36931;SDS011;22847;42.654;23.370;2022-12-13T11:52:10;12.93;;;7.95;;
36931;SDS011;22847;42.654;23.370;2022-12-13T12:00:16;15.57;;;8.75;;
36931;SDS011;22847;42.654;23.370;2022-12-13T12:02:57;17.70;;;9.95;;
36931;SDS011;22847;42.654;23.370;2022-12-13T12:05:31;46.38;;;25.67;;
36931;SDS011;22847;42.654;23.370;2022-12-13T12:08:03;19.48;;;10.48;;
36931;SDS011;22847;42.654;23.370;2022-12-13T12:13:03;18.70;;;8.25;;
36931;SDS011;22847;42.654;23.370;2022-12-13T12:15:45;16.23;;;9.25;;
36931;SDS011;22847;42.654;23.370;2022-12-13T12:18:15;15.55;;;9.32;;
36931;SDS011;22847;42.654;23.370;2022-12-13T12:21:25;17.50;;;8.60;;
36931;SDS011;22847;42.654;23.370;2022-12-13T12:23:37;15.38;;;8.82;;
36931;SDS011;22847;42.654;23.370;2022-12-13T12:48:26;13.60;;;7.72;;
36931;SDS011;22847;42.654;23.370;2022-12-13T12:51:25;18.63;;;9.13;;
36931;SDS011;22847;42.654;23.370;2022-12-13T12:56:55;16.45;;;10.02;;
36931;SDS011;22847;42.654;23.370;2022-12-13T13:05:11;16.15;;;9.60;;
36931;SDS011;22847;42.654;23.370;2022-12-13T13:10:52;20.90;;;9.52;;
36931;SDS011;22847;42.654;23.370;2022-12-13T13:16:26;16.77;;;9.10;;
36931;SDS011;22847;42.654;23.370;2022-12-13T13:18:55;16.02;;;9.07;;
36931;SDS011;22847;42.654;23.370;2022-12-13T13:23:47;15.48;;;8.27;;
36931;SDS011;22847;42.654;23.370;2022-12-13T13:26:40;18.65;;;8.80;;
36931;SDS011;22847;42.654;23.370;2022-12-13T13:34:22;15.20;;;8.10;;
36931;SDS011;22847;42.654;23.370;2022-12-13T13:36:50;13.70;;;7.60;;
36931;SDS011;22847;42.654;23.370;2022-12-13T13:47:12;16.88;;;8.68;;
36931;SDS011;22847;42.654;23.370;2022-12-13T14:31:38;40.85;;;18.92;;
36931;SDS011;22847;42.654;23.370;2022-12-13T14:34:05;40.47;;;19.92;;
36931;SDS011;22847;42.654;23.370;2022-12-13T14:36:33;40.35;;;19.52;;
36931;SDS011;22847;42.654;23.370;2022-12-13T14:39:15;40.63;;;19.35;;
36931;SDS011;22847;42.654;23.370;2022-12-13T14:41:44;43.00;;;20.60;;
36931;SDS011;22847;42.654;23.370;2022-12-13T14:44:15;47.60;;;21.38;;
36931;SDS011;22847;42.654;23.370;2022-12-13T14:46:49;42.92;;;20.73;;
36931;SDS011;22847;42.654;23.370;2022-12-13T14:49:16;49.95;;;25.17;;
36931;SDS011;22847;42.654;23.370;2022-12-13T14:51:42;48.05;;;22.45;;
36931;SDS011;22847;42.654;23.370;2022-12-13T14:54:13;44.05;;;21.95;;
36931;SDS011;22847;42.654;23.370;2022-12-13T14:56:53;42.28;;;19.02;;
36931;SDS011;22847;42.654;23.370;2022-12-13T14:59:20;43.42;;;20.85;;
36931;SDS011;22847;42.654;23.370;2022-12-13T15:01:52;38.08;;;18.23;;
36931;SDS011;22847;42.654;23.370;2022-12-13T15:06:45;41.60;;;18.45;;
36931;SDS011;22847;42.654;23.370;2022-12-13T15:09:15;38.25;;;18.85;;
36931;SDS011;22847;42.654;23.370;2022-12-13T15:11:41;40.45;;;17.95;;
36931;SDS011;22847;42.654;23.370;2022-12-13T15:14:13;34.67;;;18.13;;
36931;SDS011;22847;42.654;23.370;2022-12-13T15:16:49;43.13;;;18.50;;
36931;SDS011;22847;42.654;23.370;2022-12-13T15:19:17;40.08;;;19.25;;
36931;SDS011;22847;42.654;23.370;2022-12-13T15:24:25;47.70;;;19.67;;
36931;SDS011;22847;42.654;23.370;2022-12-13T15:26:56;70.15;;;23.85;;
36931;SDS011;22847;42.654;23.370;2022-12-13T15:29:24;47.92;;;20.90;;
36931;SDS011;22847;42.654;23.370;2022-12-13T15:31:52;51.55;;;21.90;;
36931;SDS011;22847;42.654;23.370;2022-12-13T15:36:56;47.17;;;21.05;;
36931;SDS011;22847;42.654;23.370;2022-12-13T15:39:24;37.47;;;20.45;;
36931;SDS011;22847;42.654;23.370;2022-12-13T15:41:52;42.90;;;19.85;;
36931;SDS011;22847;42.654;23.370;2022-12-13T15:46:51;49.38;;;22.27;;
36931;SDS011;22847;42.654;23.370;2022-12-13T15:49:24;42.88;;;21.17;;
36931;SDS011;22847;42.654;23.370;2022-12-13T15:51:56;49.63;;;21.83;;
36931;SDS011;22847;42.654;23.370;2022-12-13T15:54:23;45.03;;;22.00;;
36931;SDS011;22847;42.654;23.370;2022-12-13T15:59:38;43.08;;;20.92;;
36931;SDS011;22847;42.654;23.370;2022-12-13T16:04:47;38.92;;;19.77;;
36931;SDS011;22847;42.654;23.370;2022-12-13T16:07:31;38.00;;;19.20;;
36931;SDS011;22847;42.654;23.370;2022-12-13T16:10:05;42.55;;;18.65;;
36931;SDS011;22847;42.654;23.370;2022-12-13T16:12:41;37.17;;;18.48;;
36931;SDS011;22847;42.654;23.370;2022-12-13T16:15:16;40.42;;;18.83;;
36931;SDS011;22847;42.654;23.370;2022-12-13T16:17:42;34.92;;;17.67;;
36931;SDS011;22847;42.654;23.370;2022-12-13T16:20:16;37.40;;;18.48;;
36931;SDS011;22847;42.654;23.370;2022-12-13T16:22:43;37.45;;;19.27;;
36931;SDS011;22847;42.654;23.370;2022-12-13T16:25:12;37.80;;;18.75;;
36931;SDS011;22847;42.654;23.370;2022-12-13T16:27:39;39.28;;;17.65;;
36931;SDS011;22847;42.654;23.370;2022-12-13T16:30:22;36.25;;;18.30;;
36931;SDS011;22847;42.654;23.370;2022-12-13T16:32:49;39.13;;;18.35;;
36931;SDS011;22847;42.654;23.370;2022-12-13T16:35:15;37.22;;;18.77;;
36931;SDS011;22847;42.654;23.370;2022-12-13T16:37:41;38.38;;;18.52;;
36931;SDS011;22847;42.654;23.370;2022-12-13T16:40:40;38.90;;;17.30;;
36931;SDS011;22847;42.654;23.370;2022-12-13T16:43:01;34.90;;;16.85;;
36931;SDS011;22847;42.654;23.370;2022-12-13T16:45:29;34.75;;;17.35;;
36931;SDS011;22847;42.654;23.370;2022-12-13T16:48:02;41.75;;;18.55;;
36931;SDS011;22847;42.654;23.370;2022-12-13T16:50:30;38.80;;;17.83;;
36931;SDS011;22847;42.654;23.370;2022-12-13T16:52:55;33.25;;;15.98;;
36931;SDS011;22847;42.654;23.370;2022-12-13T16:55:21;40.10;;;16.55;;
36931;SDS011;22847;42.654;23.370;2022-12-13T17:00:22;42.05;;;19.38;;
36931;SDS011;22847;42.654;23.370;2022-12-13T17:02:47;41.83;;;18.88;;
36931;SDS011;22847;42.654;23.370;2022-12-13T17:05:12;42.88;;;19.80;;
36931;SDS011;22847;42.654;23.370;2022-12-13T17:07:38;49.47;;;22.52;;
36931;SDS011;22847;42.654;23.370;2022-12-13T17:10:03;50.78;;;23.85;;
36931;SDS011;22847;42.654;23.370;2022-12-13T17:12:29;56.67;;;23.63;;
36931;SDS011;22847;42.654;23.370;2022-12-13T17:14:54;37.17;;;18.30;;
36931;SDS011;22847;42.654;23.370;2022-12-13T17:17:20;40.90;;;17.25;;
36931;SDS011;22847;42.654;23.370;2022-12-13T17:19:45;45.55;;;20.00;;